S57D-6 Weather Reports


Display with metric or nautical units.
time (UTC)temp
F
wind
direction
speed
MPH
gust
MPH
rain 1hr
in
rain 24hr
in
rain mn
in
humidity
%
barometer
mb
20190123023352 27 315 0.0 0.0 0.00 0.00 0.00 87 1001.1
20190123022853 27 337 0.0 0.0 0.00 0.00 0.00 87 1001.2
20190123022352 27 337 0.0 0.0 0.00 0.00 0.00 87 1001.4
20190123021351 27 337 0.0 0.0 0.00 0.00 0.00 87 1001.4
20190123020852 27 337 0.0 0.0 0.00 0.00 0.00 87 1001.3
20190123020351 27 337 0.0 0.0 0.00 0.00 0.00 87 1001.5
20190123015851 27 337 0.0 0.0 0.00 0.00 0.00 87 1001.5
20190123015350 27 337 0.0 0.0 0.00 0.00 0.00 87 1001.6
20190123014851 27 0 0.0 0.0 0.00 0.00 0.00 87 1001.5
20190123014350 27 247 0.0 0.0 0.00 0.00 0.00 87 1001.7
20190123013349 27 270 0.0 0.0 0.00 0.00 0.00 87 1001.8
20190123012851 27 225 0.0 0.0 0.00 0.00 0.00 87 1001.8
20190123012348 27 292 0.0 0.0 0.00 0.00 0.00 87 1001.8
20190123011348 27 22 0.0 0.0 0.00 0.00 0.00 86 1001.8
20190123010850 27 22 0.0 0.0 0.00 0.00 0.00 86 1001.9
20190123010347 27 90 0.0 0.0 0.00 0.00 0.00 86 1002.0
20190123005849 27 90 0.0 0.0 0.00 0.00 0.00 86 1002.0
20190123005347 27 90 0.0 0.0 0.00 0.00 0.00 86 1001.9
20190123004849 27 157 0.0 0.0 0.00 0.00 0.00 86 1002.0
20190123004346 27 157 0.0 0.0 0.00 0.00 0.00 86 1002.1
20190123003847 27 225 0.0 0.0 0.00 0.00 0.00 85 1002.1
20190123003346 27 22 0.0 1.0 0.00 0.00 0.00 85 1002.1
20190123002846 27 135 1.0 1.0 0.00 0.00 0.00 85 1002.2
20190123002407 27 157 0.0 0.0 0.00 0.00 0.00 85 1002.3
20190123001527 28 112 0.0 0.0 0.00 0.00 0.00 85 1002.4
20190123000344 28 157 0.0 0.0 0.00 0.00 0.00 84 1002.5
20190122235846 28 112 0.0 0.0 0.00 0.00 0.00 84 1002.6
20190122235343 28 0 0.0 0.0 0.00 0.00 0.00 84 1002.6
20190122234343 28 337 0.0 1.0 0.00 0.00 0.00 83 1002.7
20190122233844 28 135 2.0 2.0 0.00 0.00 0.00 82 1002.8
20190122233342 28 45 1.0 4.0 0.00 0.00 0.00 82 1002.8
20190122232342 28 0 0.0 0.0 0.00 0.00 0.00 82 1003.0
20190122231341 28 247 0.0 0.0 0.00 0.00 0.00 82 1003.1
20190122230340 28 22 2.0 2.0 0.00 0.00 0.00 82 1003.2
20190122225340 28 315 0.0 0.0 0.00 0.00 0.00 82 1003.3
20190122224339 28 22 0.0 0.0 0.00 0.00 0.00 82 1003.5
20190122223840 28 202 0.0 0.0 0.00 0.00 0.00 82 1003.6
20190122223339 28 90 0.0 0.0 0.00 0.00 0.00 82 1003.6
20190122222840 28 292 0.0 0.0 0.00 0.00 0.00 82 1003.6
20190122222338 28 270 0.0 0.0 0.00 0.00 0.00 82 1003.6
20190122221840 28 135 0.0 0.0 0.00 0.00 0.00 82 1003.7
20190122221338 28 157 0.0 0.0 0.00 0.00 0.00 81 1003.8
20190122220838 28 292 0.0 0.0 0.00 0.00 0.00 81 1003.8
20190122220337 28 112 0.0 1.0 0.00 0.00 0.00 81 1003.9
20190122215337 28 135 0.0 1.0 0.00 0.00 0.00 81 1004.0
20190122214336 28 90 0.0 0.0 0.00 0.00 0.00 81 1004.0
20190122213837 28 22 0.0 0.0 0.00 0.00 0.00 81 1004.0
20190122213335 28 22 0.0 0.0 0.00 0.00 0.00 81 1004.1
20190122212836 28 315 0.0 0.0 0.00 0.00 0.00 81 1004.1
20190122212335 28 270 0.0 0.0 0.00 0.00 0.00 81 1004.1
20190122211334 28 45 0.0 2.0 0.00 0.00 0.00 82 1004.3
20190122210835 28 90 2.0 2.0 0.00 0.00 0.00 82 1004.3
20190122210334 28 0 0.0 0.0 0.00 0.00 0.00 83 1004.4
20190122205834 28 337 0.0 0.0 0.00 0.00 0.00 83 1004.5
20190122205333 28 22 0.0 4.0 0.00 0.00 0.00 83 1004.5
20190122204834 28 135 4.0 4.0 0.00 0.00 0.00 83 1004.7
20190122204333 28 157 0.0 0.0 0.00 0.00 0.00 82 1004.7
20190122203332 28 157 4.0 4.0 0.00 0.00 0.00 83 1004.9
20190122202833 28 135 0.0 0.0 0.00 0.00 0.00 83 1004.9
20190122202331 28 135 0.0 4.0 0.00 0.00 0.00 83 1004.9
20190122201331 28 135 0.0 0.0 0.00 0.00 0.00 83 1005.1
20190122200330 28 112 0.0 0.0 0.00 0.00 0.00 83 1005.2
20190122195330 29 157 0.0 1.0 0.00 0.00 0.00 83 1005.3
20190122194329 29 135 0.0 0.0 0.00 0.00 0.00 83 1005.4
20190122193329 29 67 2.0 2.0 0.00 0.00 0.00 83 1005.5
20190122192328 29 45 1.0 2.0 0.00 0.00 0.00 83 1005.5
20190122192215 29 90 2.0 2.0 0.00 0.00 0.00 83 1005.7
20190122191831 29 90 2.0 2.0 0.00 0.00 0.00 83 1005.7
20190122191327 29 135 2.0 3.0 0.00 0.00 0.00 83 1005.7
20190122190955 29 112 1.0 1.0 0.00 0.00 0.00 82 1005.7
20190122190828 29 112 1.0 1.0 0.00 0.00 0.00 82 1005.7
20190122190327 29 67 0.0 2.0 0.00 0.00 0.00 82 1005.8
20190122185326 30 0 2.0 4.0 0.00 0.00 0.00 82 1005.8
20190122184831 30 22 0.0 3.0 0.00 0.00 0.00 81 1005.7
20190122184326 30 135 0.0 4.0 0.00 0.00 0.00 81 1005.8
20190122183916 30 180 0.0 1.0 0.00 0.00 0.00 81 1005.8
20190122183828 30 180 0.0 1.0 0.00 0.00 0.00 81 1005.8
20190122183457 30 112 1.0 1.0 0.00 0.00 0.00 81 1006.0
20190122183325 30 112 1.0 1.0 0.00 0.00 0.00 81 1006.0
20190122182515 30 157 0.0 0.0 0.00 0.00 0.00 80 1006.1
20190122182325 30 157 0.0 0.0 0.00 0.00 0.00 80 1006.1
20190122181324 30 135 2.0 2.0 0.00 0.00 0.00 79 1006.1
20190122180950 30 135 0.0 0.0 0.00 0.00 0.00 79 1006.1
20190122180825 30 135 0.0 0.0 0.00 0.00 0.00 79 1006.1
20190122180323 31 135 0.0 3.0 0.00 0.00 0.00 79 1006.2
20190122175824 31 90 3.0 3.0 0.00 0.00 0.00 79 1006.2
20190122175323 31 157 0.0 1.0 0.00 0.00 0.00 78 1006.2
20190122174824 31 225 1.0 1.0 0.00 0.00 0.00 78 1006.2
20190122174449 31 67 0.0 0.0 0.00 0.00 0.00 78 1006.3
20190122174322 31 67 0.0 0.0 0.00 0.00 0.00 78 1006.3
20190122173856 31 45 0.0 0.0 0.00 0.00 0.00 78 1006.3
20190122173825 31 45 0.0 0.0 0.00 0.00 0.00 78 1006.3
20190122173432 31 0 0.0 0.0 0.00 0.00 0.00 78 1006.3
20190122173322 31 0 0.0 0.0 0.00 0.00 0.00 78 1006.3
20190122172321 31 67 0.0 0.0 0.00 0.00 0.00 77 1006.4
20190122171321 31 247 0.0 2.0 0.00 0.00 0.00 77 1006.5
20190122170821 31 135 0.0 2.0 0.00 0.00 0.00 77 1006.4
20190122170400 31 22 2.0 3.0 0.00 0.00 0.00 77 1006.4
20190122170320 31 22 2.0 3.0 0.00 0.00 0.00 77 1006.4
20190122165919 31 112 0.0 0.0 0.00 0.00 0.00 77 1006.4
20190122165821 31 112 0.0 0.0 0.00 0.00 0.00 77 1006.4
20190122165319 31 180 0.0 0.0 0.00 0.00 0.00 77 1006.4
20190122164501 31 90 0.0 1.0 0.00 0.00 0.00 77 1006.5
20190122164319 31 90 0.0 1.0 0.00 0.00 0.00 77 1006.5
20190122163947 31 22 0.0 0.0 0.00 0.00 0.00 76 1006.6
20190122163820 31 22 0.0 0.0 0.00 0.00 0.00 76 1006.6
20190122163426 31 45 0.0 0.0 0.00 0.00 0.00 76 1006.6
20190122163318 31 45 0.0 0.0 0.00 0.00 0.00 76 1006.6
20190122162318 31 337 0.0 0.0 0.00 0.00 0.00 76 1006.6
20190122162224 31 157 0.0 0.0 0.00 0.00 0.00 76 1006.6
20190122161818 31 157 0.0 0.0 0.00 0.00 0.00 76 1006.6
20190122161533 31 45 0.0 0.0 0.00 0.00 0.00 75 1006.7
20190122161317 31 45 0.0 0.0 0.00 0.00 0.00 75 1006.7
20190122160818 31 0 0.0 2.0 0.00 0.00 0.00 75 1006.7
20190122160317 31 157 2.0 2.0 0.00 0.00 0.00 75 1006.7
20190122155817 32 315 0.0 0.0 0.00 0.00 0.00 75 1006.7
20190122155316 32 157 0.0 0.0 0.00 0.00 0.00 75 1006.7
20190122154315 32 135 0.0 0.0 0.00 0.00 0.00 75 1006.7
20190122153315 32 112 0.0 0.0 0.00 0.00 0.00 74 1006.7
20190122152314 32 112 0.0 0.0 0.00 0.00 0.00 74 1006.8
20190122151314 32 45 1.0 1.0 0.00 0.00 0.00 74 1006.9
20190122150815 32 157 0.0 0.0 0.00 0.00 0.00 74 1007.0
20190122150313 32 90 0.0 0.0 0.00 0.00 0.00 74 1006.9
20190122145814 33 112 0.0 0.0 0.00 0.00 0.00 73 1007.0
20190122145313 33 0 0.0 0.0 0.00 0.00 0.00 73 1007.1
20190122144312 33 90 0.0 1.0 0.00 0.00 0.00 73 1007.3
20190122143311 33 157 0.0 0.0 0.00 0.00 0.00 73 1007.3
20190122142812 33 45 0.0 0.0 0.00 0.00 0.00 73 1007.4
20190122142402 33 90 0.0 2.0 0.00 0.00 0.00 73 1007.4
20190122142311 33 90 0.0 2.0 0.00 0.00 0.00 73 1007.4
20190122141310 34 90 0.0 1.0 0.00 0.00 0.00 72 1007.5
20190122140851 34 67 0.0 0.0 0.00 0.00 0.00 72 1007.5
20190122140811 34 67 0.0 0.0 0.00 0.00 0.00 72 1007.5
20190122140310 34 135 0.0 0.0 0.00 0.00 0.00 72 1007.7
20190122135309 34 112 0.0 0.0 0.00 0.00 0.00 72 1007.8
20190122134810 34 22 0.0 3.0 0.00 0.00 0.00 72 1007.8
20190122134309 34 157 3.0 4.0 0.00 0.00 0.00 71 1007.9
20190122133308 34 135 0.0 2.0 0.00 0.00 0.00 73 1007.9
20190122132809 34 157 2.0 2.0 0.00 0.00 0.00 72 1008.0
20190122132308 35 135 0.0 3.0 0.00 0.00 0.00 73 1008.3
20190122131307 35 45 0.0 0.0 0.00 0.00 0.00 73 1008.4
20190122130808 35 90 0.0 0.0 0.00 0.00 0.00 73 1008.5
20190122130307 35 180 0.0 0.0 0.00 0.00 0.00 73 1008.6
20190122125849 35 202 0.0 2.0 0.00 0.00 0.00 73 1008.6
20190122125807 35 202 0.0 2.0 0.00 0.00 0.00 73 1008.6
20190122125306 35 135 2.0 2.0 0.00 0.00 0.00 73 1008.8
20190122124806 35 90 0.0 0.0 0.00 0.00 0.00 74 1008.9
20190122124522 35 67 0.0 0.0 0.00 0.00 0.00 74 1008.9
20190122124305 35 67 0.0 0.0 0.00 0.00 0.00 74 1008.9
20190122123421 35 135 0.0 0.0 0.00 0.00 0.00 74 1009.1
20190122123305 35 135 0.0 0.0 0.00 0.00 0.00 74 1009.1
20190122122304 35 112 0.0 0.0 0.00 0.00 0.00 76 1009.1
20190122121805 34 225 0.0 0.0 0.00 0.00 0.00 77 1009.2
20190122121304 34 292 0.0 0.0 0.00 0.00 0.00 77 1009.5
20190122120804 34 337 0.0 0.0 0.00 0.00 0.00 77 1009.4
20190122120303 33 247 0.0 0.0 0.00 0.00 0.00 78 1009.6
20190122115804 33 337 0.0 0.0 0.00 0.00 0.00 78 1009.7
20190122115334 33 270 0.0 0.0 0.00 0.00 0.00 78 1009.9
20190122115303 33 270 0.0 0.0 0.00 0.00 0.00 78 1009.9
20190122114302 33 337 0.0 2.0 0.00 0.00 0.00 78 1010.1
20190122113342 33 270 0.0 0.0 0.00 0.00 0.00 78 1010.3
20190122113301 33 270 0.0 0.0 0.00 0.00 0.00 78 1010.3
20190122112301 33 0 1.0 1.0 0.00 0.00 0.00 79 1010.5
20190122111836 33 315 0.0 1.0 0.00 0.00 0.00 79 1010.6
20190122111801 33 315 0.0 1.0 0.00 0.00 0.00 79 1010.6
20190122111338 33 67 0.0 2.0 0.00 0.00 0.00 78 1010.7
20190122111300 33 67 0.0 2.0 0.00 0.00 0.00 78 1010.7
20190122110803 33 0 2.0 2.0 0.00 0.00 0.00 78 1010.9
20190122110334 33 22 0.0 0.0 0.00 0.00 0.00 79 1011.1
20190122110300 33 22 0.0 0.0 0.00 0.00 0.00 79 1011.1
20190122105924 33 0 0.0 1.0 0.00 0.00 0.00 79 1011.1
20190122105800 33 0 0.0 1.0 0.00 0.00 0.00 79 1011.1
20190122105259 33 22 1.0 1.0 0.00 0.00 0.00 80 1011.2
20190122104800 33 0 0.0 1.0 0.00 0.00 0.00 80 1011.3
20190122104258 33 270 0.0 3.0 0.00 0.00 0.00 79 1011.4
20190122103851 33 270 3.0 3.0 0.00 0.00 0.00 80 1011.5
20190122103759 33 270 3.0 3.0 0.00 0.00 0.00 80 1011.5
20190122103420 33 22 0.0 2.0 0.00 0.00 0.00 80 1011.6
20190122103258 33 22 0.0 2.0 0.00 0.00 0.00 80 1011.6
20190122102801 33 0 2.0 2.0 0.00 0.00 0.00 81 1011.6
20190122102411 33 22 1.0 1.0 0.00 0.00 0.00 81 1011.6
20190122102257 33 22 1.0 1.0 0.00 0.00 0.00 81 1011.6
20190122101257 33 112 0.0 0.0 0.00 0.00 0.00 82 1011.8
20190122100757 32 0 0.0 0.0 0.00 0.00 0.00 83 1011.9
20190122100256 32 270 0.0 0.0 0.00 0.00 0.00 83 1012.0
20190122095256 32 0 1.0 1.0 0.00 0.00 0.00 84 1012.2
20190122094759 31 0 1.0 2.0 0.00 0.00 0.00 85 1012.3
20190122094716 31 0 2.0 2.0 0.00 0.00 0.00 86 1012.4
20190122094255 31 0 2.0 2.0 0.00 0.00 0.00 86 1012.4
20190122093756 31 0 0.0 0.0 0.00 0.00 0.00 86 1012.3
20190122093254 31 45 0.0 0.0 0.00 0.00 0.00 87 1012.4
20190122092254 31 292 0.0 0.0 0.00 0.00 0.00 88 1012.4
20190122091253 30 292 0.0 0.0 0.00 0.00 0.00 88 1012.5
20190122090754 30 292 0.0 0.0 0.00 0.00 0.00 88 1012.5
20190122090253 30 67 0.0 0.0 0.00 0.00 0.00 89 1012.5
20190122085753 29 22 0.0 0.0 0.00 0.00 0.00 89 1012.5
20190122085252 29 22 0.0 0.0 0.00 0.00 0.00 89 1012.5
20190122085010 29 112 0.0 0.0 0.00 0.00 0.00 89 1012.7
20190122084753 29 22 0.0 0.0 0.00 0.00 0.00 89 1012.6
20190122084252 29 112 0.0 0.0 0.00 0.00 0.00 89 1012.7
20190122083933 28 112 0.0 0.0 0.00 0.00 0.00 89 1012.7
20190122083752 28 112 0.0 0.0 0.00 0.00 0.00 89 1012.7
20190122083251 28 112 0.0 0.0 0.00 0.00 0.00 89 1012.7
20190122082250 28 0 0.0 0.0 0.00 0.00 0.00 90 1012.8
20190122081250 27 0 0.0 0.0 0.00 0.00 0.00 90 1012.9
20190122080937 27 0 0.0 0.0 0.00 0.00 0.00 90 1013.1
20190122080750 27 0 0.0 0.0 0.00 0.00 0.00 90 1012.9
20190122080249 27 22 0.0 0.0 0.00 0.00 0.00 90 1012.9
20190122075750 27 0 0.0 0.0 0.00 0.00 0.00 90 1013.1
20190122075249 27 0 0.0 0.0 0.00 0.00 0.00 90 1013.1
20190122074248 27 0 0.0 0.0 0.00 0.00 0.00 90 1013.1
20190122073933 26 337 0.0 0.0 0.00 0.00 0.00 90 1013.2
20190122073749 27 0 0.0 0.0 0.00 0.00 0.00 90 1013.1
20190122073248 26 0 0.0 0.0 0.00 0.00 0.00 90 1013.3
20190122072750 26 0 0.0 0.0 0.00 0.00 0.00 90 1013.2
20190122072247 26 337 0.0 0.0 0.00 0.00 0.00 90 1013.2
20190122071748 26 0 0.0 0.0 0.00 0.00 0.00 90 1013.2
20190122071246 26 0 0.0 0.0 0.00 0.00 0.00 90 1013.2
20190122070931 25 22 0.0 0.0 0.00 0.00 0.00 90 1013.3
20190122070747 26 0 0.0 0.0 0.00 0.00 0.00 90 1013.3
20190122070246 26 0 0.0 0.0 0.00 0.00 0.00 90 1013.3
20190122065746 25 22 0.0 0.0 0.00 0.00 0.00 90 1013.3
20190122065507 25 0 0.0 0.0 0.00 0.00 0.00 90 1013.5
20190122065245 25 22 0.0 0.0 0.00 0.00 0.00 90 1013.4
20190122064746 25 22 0.0 0.0 0.00 0.00 0.00 90 1013.4
20190122064245 25 0 0.0 0.0 0.00 0.00 0.00 90 1013.5
20190122063244 26 292 0.0 0.0 0.00 0.00 0.00 90 1013.5
20190122062732 26 270 0.0 0.0 0.00 0.00 0.00 90 1013.5
20190122062244 26 270 0.0 0.0 0.00 0.00 0.00 90 1013.5
20190122061243 26 0 0.0 0.0 0.00 0.00 0.00 90 1013.3
20190122060849 26 22 0.0 0.0 0.00 0.00 0.00 90 1013.4
20190122060746 26 22 0.0 0.0 0.00 0.00 0.00 90 1013.4
20190122060358 26 90 0.0 0.0 0.00 0.00 0.00 90 1013.3
20190122060242 26 90 0.0 0.0 0.00 0.00 0.00 90 1013.3
20190122055242 26 337 0.0 0.0 0.00 0.00 0.00 90 1013.5
20190122054743 25 337 0.0 0.0 0.00 0.00 0.00 90 1013.5
20190122054242 25 0 0.0 0.0 0.00 0.00 0.00 90 1013.5
20190122053615 25 337 0.0 0.0 0.00 0.00 0.00 90 1013.6
20190122053241 25 0 0.0 0.0 0.00 0.00 0.00 90 1013.6
20190122052743 25 337 0.0 0.0 0.00 0.00 0.00 90 1013.6
20190122052240 25 337 0.0 0.0 0.00 0.00 0.00 90 1013.8
20190122051742 25 315 0.0 0.0 0.00 0.00 0.00 90 1013.7
20190122051240 25 292 0.0 0.0 0.00 0.00 0.00 90 1013.8
20190122050929 25 337 0.0 0.0 0.00 0.00 0.00 90 1013.8
20190122050742 25 337 0.0 0.0 0.00 0.00 0.00 90 1013.8
20190122050435 25 22 0.0 0.0 0.00 0.00 0.00 90 1013.8
20190122050359 25 22 0.0 0.0 0.00 0.00 0.00 90 1013.8
20190122050239 25 22 0.0 0.0 0.00 0.00 0.00 90 1013.8
20190122045550 25 292 0.0 0.0 0.00 0.00 0.00 90 1013.8
20190122045238 25 292 0.0 0.0 0.00 0.00 0.00 90 1013.8
20190122044913 25 292 0.0 0.0 0.00 0.00 0.00 90 1013.9
20190122044741 25 292 0.0 0.0 0.00 0.00 0.00 90 1013.9
20190122044407 25 315 0.0 0.0 0.00 0.00 0.00 90 1013.7
20190122044238 25 315 0.0 0.0 0.00 0.00 0.00 90 1013.7
20190122043325 26 337 0.0 0.0 0.00 0.00 0.00 90 1013.7
20190122043237 26 337 0.0 0.0 0.00 0.00 0.00 90 1013.7
20190122042237 26 337 0.0 0.0 0.00 0.00 0.00 90 1013.8
20190122041741 26 337 0.0 0.0 0.00 0.00 0.00 90 1013.8
20190122041316 27 337 0.0 0.0 0.00 0.00 0.00 90 1013.8
20190122041236 27 337 0.0 0.0 0.00 0.00 0.00 90 1013.8
20190122040843 27 337 0.0 0.0 0.00 0.00 0.00 90 1014.0
20190122040737 27 337 0.0 0.0 0.00 0.00 0.00 90 1014.0
20190122040236 27 337 0.0 0.0 0.00 0.00 0.00 90 1014.0
20190122035235 27 0 0.0 0.0 0.00 0.00 0.00 90 1014.0
20190122034234 27 0 0.0 0.0 0.00 0.00 0.00 90 1014.1
20190122033735 27 0 0.0 0.0 0.00 0.00 0.00 90 1014.1
20190122033234 27 0 0.0 0.0 0.00 0.00 0.00 90 1014.1
20190122032735 27 0 0.0 0.0 0.00 0.00 0.00 90 1014.2
20190122032233 27 0 0.0 1.0 0.00 0.00 0.00 90 1014.3
20190122031233 27 0 0.0 0.0 0.00 0.00 0.00 90 1014.4
20190122030811 27 337 0.0 0.0 0.00 0.00 0.00 90 1014.5
20190122030733 27 337 0.0 0.0 0.00 0.00 0.00 90 1014.5
20190122030232 27 0 0.0 0.0 0.00 0.00 0.00 90 1014.6
20190122025733 27 0 0.0 0.0 0.00 0.00 0.00 90 1014.5
20190122025404 27 0 0.0 0.0 0.00 0.00 0.00 90 1014.5
20190122025232 27 0 0.0 0.0 0.00 0.00 0.00 90 1014.5
20190122024810 27 135 0.0 0.0 0.00 0.00 0.00 90 1014.7
20190122024732 27 135 0.0 0.0 0.00 0.00 0.00 90 1014.7
20190122024231 27 22 0.0 0.0 0.00 0.00 0.00 90 1014.7